sensor_id;sensor_type;location;lat;lon;timestamp;P1;durP1;ratioP1;P2;durP2;ratioP2
2644;SDS011;15377;48.540;9.268;2023-05-23T00:00:36;15.07;;;10.17;;
2644;SDS011;15377;48.540;9.268;2023-05-23T00:03:02;14.93;;;10.10;;
2644;SDS011;15377;48.540;9.268;2023-05-23T00:05:28;16.73;;;10.83;;
2644;SDS011;15377;48.540;9.268;2023-05-23T00:07:56;19.00;;;10.53;;
2644;SDS011;15377;48.540;9.268;2023-05-23T00:10:24;15.07;;;9.43;;
2644;SDS011;15377;48.540;9.268;2023-05-23T00:12:58;17.67;;;10.50;;
2644;SDS011;15377;48.540;9.268;2023-05-23T00:15:26;17.47;;;10.80;;
2644;SDS011;15377;48.540;9.268;2023-05-23T00:18:05;16.70;;;10.47;;
2644;SDS011;15377;48.540;9.268;2023-05-23T00:20:48;16.47;;;10.30;;
2644;SDS011;15377;48.540;9.268;2023-05-23T00:23:15;16.73;;;11.07;;
2644;SDS011;15377;48.540;9.268;2023-05-23T00:25:44;16.13;;;10.33;;
2644;SDS011;15377;48.540;9.268;2023-05-23T00:28:22;17.63;;;10.10;;
2644;SDS011;15377;48.540;9.268;2023-05-23T00:30:48;15.77;;;9.23;;
2644;SDS011;15377;48.540;9.268;2023-05-23T00:33:19;15.73;;;9.40;;
2644;SDS011;15377;48.540;9.268;2023-05-23T00:35:49;16.70;;;10.90;;
2644;SDS011;15377;48.540;9.268;2023-05-23T00:38:20;22.60;;;11.93;;
2644;SDS011;15377;48.540;9.268;2023-05-23T00:40:49;18.20;;;11.13;;
2644;SDS011;15377;48.540;9.268;2023-05-23T00:43:23;17.60;;;11.43;;
2644;SDS011;15377;48.540;9.268;2023-05-23T00:45:49;16.17;;;10.57;;
2644;SDS011;15377;48.540;9.268;2023-05-23T00:48:20;18.17;;;11.43;;
2644;SDS011;15377;48.540;9.268;2023-05-23T00:50:55;20.80;;;11.37;;
2644;SDS011;15377;48.540;9.268;2023-05-23T00:53:21;20.07;;;13.07;;
2644;SDS011;15377;48.540;9.268;2023-05-23T00:55:52;19.23;;;11.30;;
2644;SDS011;15377;48.540;9.268;2023-05-23T00:58:20;19.73;;;12.10;;
2644;SDS011;15377;48.540;9.268;2023-05-23T01:00:46;18.17;;;12.07;;
2644;SDS011;15377;48.540;9.268;2023-05-23T01:03:17;20.80;;;12.40;;
2644;SDS011;15377;48.540;9.268;2023-05-23T01:05:43;19.43;;;11.30;;
2644;SDS011;15377;48.540;9.268;2023-05-23T01:08:08;19.30;;;11.77;;
2644;SDS011;15377;48.540;9.268;2023-05-23T01:10:34;27.83;;;13.33;;
2644;SDS011;15377;48.540;9.268;2023-05-23T01:13:12;20.27;;;12.67;;
2644;SDS011;15377;48.540;9.268;2023-05-23T01:15:51;19.07;;;11.93;;
2644;SDS011;15377;48.540;9.268;2023-05-23T01:18:27;16.33;;;11.20;;
2644;SDS011;15377;48.540;9.268;2023-05-23T01:21:17;21.17;;;12.70;;
2644;SDS011;15377;48.540;9.268;2023-05-23T01:29:08;30.20;;;15.40;;
2644;SDS011;15377;48.540;9.268;2023-05-23T01:31:46;23.53;;;15.00;;
2644;SDS011;15377;48.540;9.268;2023-05-23T01:34:16;20.70;;;12.47;;
2644;SDS011;15377;48.540;9.268;2023-05-23T01:36:43;21.90;;;13.90;;
2644;SDS011;15377;48.540;9.268;2023-05-23T01:39:08;19.53;;;13.10;;
2644;SDS011;15377;48.540;9.268;2023-05-23T01:41:34;21.30;;;12.30;;
2644;SDS011;15377;48.540;9.268;2023-05-23T01:44:00;21.63;;;12.20;;
2644;SDS011;15377;48.540;9.268;2023-05-23T01:46:26;22.67;;;13.90;;
2644;SDS011;15377;48.540;9.268;2023-05-23T01:48:53;20.50;;;13.90;;
2644;SDS011;15377;48.540;9.268;2023-05-23T01:51:21;23.60;;;14.43;;
2644;SDS011;15377;48.540;9.268;2023-05-23T01:53:48;27.47;;;15.67;;
2644;SDS011;15377;48.540;9.268;2023-05-23T01:56:14;26.50;;;15.20;;
2644;SDS011;15377;48.540;9.268;2023-05-23T01:58:41;24.07;;;15.20;;
2644;SDS011;15377;48.540;9.268;2023-05-23T02:01:06;23.57;;;15.33;;
2644;SDS011;15377;48.540;9.268;2023-05-23T02:03:33;24.30;;;15.10;;
2644;SDS011;15377;48.540;9.268;2023-05-23T02:05:59;26.20;;;16.63;;
2644;SDS011;15377;48.540;9.268;2023-05-23T02:08:24;27.17;;;15.70;;
2644;SDS011;15377;48.540;9.268;2023-05-23T02:10:50;23.17;;;15.50;;
2644;SDS011;15377;48.540;9.268;2023-05-23T02:13:15;26.50;;;16.27;;
2644;SDS011;15377;48.540;9.268;2023-05-23T02:15:40;26.60;;;15.83;;
2644;SDS011;15377;48.540;9.268;2023-05-23T02:18:06;31.80;;;18.60;;
2644;SDS011;15377;48.540;9.268;2023-05-23T02:20:31;28.10;;;16.90;;
2644;SDS011;15377;48.540;9.268;2023-05-23T02:22:56;29.57;;;16.07;;
2644;SDS011;15377;48.540;9.268;2023-05-23T02:25:22;30.50;;;18.10;;
2644;SDS011;15377;48.540;9.268;2023-05-23T02:27:47;28.73;;;17.33;;
2644;SDS011;15377;48.540;9.268;2023-05-23T02:30:12;32.03;;;18.87;;
2644;SDS011;15377;48.540;9.268;2023-05-23T02:32:38;26.17;;;17.50;;
2644;SDS011;15377;48.540;9.268;2023-05-23T02:35:03;26.90;;;17.10;;
2644;SDS011;15377;48.540;9.268;2023-05-23T02:37:30;32.93;;;18.43;;
2644;SDS011;15377;48.540;9.268;2023-05-23T02:39:55;32.27;;;19.40;;
2644;SDS011;15377;48.540;9.268;2023-05-23T02:42:21;31.53;;;18.00;;
2644;SDS011;15377;48.540;9.268;2023-05-23T02:44:46;28.70;;;18.37;;
2644;SDS011;15377;48.540;9.268;2023-05-23T02:47:11;28.20;;;19.40;;
2644;SDS011;15377;48.540;9.268;2023-05-23T02:49:37;30.90;;;17.57;;
2644;SDS011;15377;48.540;9.268;2023-05-23T02:52:02;31.37;;;17.40;;
2644;SDS011;15377;48.540;9.268;2023-05-23T02:54:28;32.60;;;18.27;;
2644;SDS011;15377;48.540;9.268;2023-05-23T02:56:53;29.23;;;17.70;;
2644;SDS011;15377;48.540;9.268;2023-05-23T02:59:19;33.60;;;19.50;;
2644;SDS011;15377;48.540;9.268;2023-05-23T03:01:46;33.17;;;19.03;;
2644;SDS011;15377;48.540;9.268;2023-05-23T03:04:11;31.90;;;19.00;;
2644;SDS011;15377;48.540;9.268;2023-05-23T03:06:37;33.33;;;18.63;;
2644;SDS011;15377;48.540;9.268;2023-05-23T03:09:03;30.07;;;17.83;;
2644;SDS011;15377;48.540;9.268;2023-05-23T03:11:29;26.60;;;15.90;;
2644;SDS011;15377;48.540;9.268;2023-05-23T03:13:54;31.63;;;17.60;;
2644;SDS011;15377;48.540;9.268;2023-05-23T03:16:20;29.93;;;19.27;;
2644;SDS011;15377;48.540;9.268;2023-05-23T03:18:47;38.73;;;21.00;;
2644;SDS011;15377;48.540;9.268;2023-05-23T03:21:13;32.07;;;21.60;;
2644;SDS011;15377;48.540;9.268;2023-05-23T03:23:38;32.40;;;20.93;;
2644;SDS011;15377;48.540;9.268;2023-05-23T03:26:03;32.57;;;18.40;;
2644;SDS011;15377;48.540;9.268;2023-05-23T03:28:30;34.00;;;20.90;;
2644;SDS011;15377;48.540;9.268;2023-05-23T03:30:56;31.83;;;18.93;;
2644;SDS011;15377;48.540;9.268;2023-05-23T03:33:22;38.67;;;21.17;;
2644;SDS011;15377;48.540;9.268;2023-05-23T03:35:47;41.93;;;22.47;;
2644;SDS011;15377;48.540;9.268;2023-05-23T03:38:13;37.33;;;22.90;;
2644;SDS011;15377;48.540;9.268;2023-05-23T03:40:39;43.73;;;24.57;;
2644;SDS011;15377;48.540;9.268;2023-05-23T03:43:05;42.13;;;24.07;;
2644;SDS011;15377;48.540;9.268;2023-05-23T03:45:31;45.47;;;22.70;;
2644;SDS011;15377;48.540;9.268;2023-05-23T03:47:57;49.00;;;24.53;;
2644;SDS011;15377;48.540;9.268;2023-05-23T03:50:23;48.77;;;24.33;;
2644;SDS011;15377;48.540;9.268;2023-05-23T03:52:48;50.33;;;26.10;;
2644;SDS011;15377;48.540;9.268;2023-05-23T03:55:13;49.67;;;25.97;;
2644;SDS011;15377;48.540;9.268;2023-05-23T03:57:39;43.13;;;24.20;;
2644;SDS011;15377;48.540;9.268;2023-05-23T04:00:04;40.77;;;23.47;;
2644;SDS011;15377;48.540;9.268;2023-05-23T04:02:30;37.03;;;21.73;;
2644;SDS011;15377;48.540;9.268;2023-05-23T04:04:56;39.40;;;21.13;;
2644;SDS011;15377;48.540;9.268;2023-05-23T04:07:22;39.20;;;20.90;;
2644;SDS011;15377;48.540;9.268;2023-05-23T04:09:50;34.97;;;19.30;;
2644;SDS011;15377;48.540;9.268;2023-05-23T04:12:19;34.60;;;22.10;;
2644;SDS011;15377;48.540;9.268;2023-05-23T04:14:46;35.70;;;19.70;;
2644;SDS011;15377;48.540;9.268;2023-05-23T04:17:12;34.37;;;20.70;;
2644;SDS011;15377;48.540;9.268;2023-05-23T04:19:38;36.60;;;19.90;;
2644;SDS011;15377;48.540;9.268;2023-05-23T04:22:04;35.23;;;20.07;;
2644;SDS011;15377;48.540;9.268;2023-05-23T04:24:29;32.07;;;17.30;;
2644;SDS011;15377;48.540;9.268;2023-05-23T04:26:54;32.90;;;19.50;;
2644;SDS011;15377;48.540;9.268;2023-05-23T04:29:20;32.20;;;19.30;;
2644;SDS011;15377;48.540;9.268;2023-05-23T04:31:45;32.33;;;18.00;;
2644;SDS011;15377;48.540;9.268;2023-05-23T04:34:11;36.53;;;20.63;;
2644;SDS011;15377;48.540;9.268;2023-05-23T04:36:36;38.43;;;22.00;;
2644;SDS011;15377;48.540;9.268;2023-05-23T04:39:02;33.20;;;20.00;;
2644;SDS011;15377;48.540;9.268;2023-05-23T04:41:29;32.50;;;21.83;;
2644;SDS011;15377;48.540;9.268;2023-05-23T04:43:55;30.40;;;18.00;;
2644;SDS011;15377;48.540;9.268;2023-05-23T04:46:22;33.40;;;19.83;;
2644;SDS011;15377;48.540;9.268;2023-05-23T04:48:51;32.00;;;19.83;;
2644;SDS011;15377;48.540;9.268;2023-05-23T04:51:25;31.50;;;19.90;;
2644;SDS011;15377;48.540;9.268;2023-05-23T04:54:01;30.17;;;20.00;;
2644;SDS011;15377;48.540;9.268;2023-05-23T04:56:29;38.80;;;21.10;;
2644;SDS011;15377;48.540;9.268;2023-05-23T04:58:54;35.33;;;20.60;;
2644;SDS011;15377;48.540;9.268;2023-05-23T05:01:20;32.97;;;18.80;;
2644;SDS011;15377;48.540;9.268;2023-05-23T05:03:48;32.90;;;19.33;;
2644;SDS011;15377;48.540;9.268;2023-05-23T05:06:13;34.87;;;21.50;;
2644;SDS011;15377;48.540;9.268;2023-05-23T05:08:51;36.87;;;21.27;;
2644;SDS011;15377;48.540;9.268;2023-05-23T05:11:16;32.70;;;20.50;;
2644;SDS011;15377;48.540;9.268;2023-05-23T05:13:48;37.47;;;21.97;;
2644;SDS011;15377;48.540;9.268;2023-05-23T05:16:14;34.47;;;19.80;;
2644;SDS011;15377;48.540;9.268;2023-05-23T05:18:39;38.33;;;21.93;;
2644;SDS011;15377;48.540;9.268;2023-05-23T05:21:19;38.80;;;23.37;;
2644;SDS011;15377;48.540;9.268;2023-05-23T05:23:44;39.03;;;23.03;;
2644;SDS011;15377;48.540;9.268;2023-05-23T05:26:10;39.73;;;23.23;;
2644;SDS011;15377;48.540;9.268;2023-05-23T05:28:35;34.37;;;21.07;;
2644;SDS011;15377;48.540;9.268;2023-05-23T05:31:03;37.97;;;21.67;;
2644;SDS011;15377;48.540;9.268;2023-05-23T05:33:32;36.47;;;21.83;;
2644;SDS011;15377;48.540;9.268;2023-05-23T05:36:02;42.73;;;22.00;;
2644;SDS011;15377;48.540;9.268;2023-05-23T05:38:36;39.30;;;23.43;;
2644;SDS011;15377;48.540;9.268;2023-05-23T05:41:04;34.73;;;21.20;;
2644;SDS011;15377;48.540;9.268;2023-05-23T05:43:30;48.17;;;23.40;;
2644;SDS011;15377;48.540;9.268;2023-05-23T05:45:58;37.30;;;21.43;;
2644;SDS011;15377;48.540;9.268;2023-05-23T05:48:29;41.00;;;23.53;;
2644;SDS011;15377;48.540;9.268;2023-05-23T05:50:58;36.30;;;22.03;;
2644;SDS011;15377;48.540;9.268;2023-05-23T05:53:25;38.70;;;22.97;;
2644;SDS011;15377;48.540;9.268;2023-05-23T05:55:50;42.83;;;22.97;;
2644;SDS011;15377;48.540;9.268;2023-05-23T05:58:15;42.27;;;22.47;;
2644;SDS011;15377;48.540;9.268;2023-05-23T06:00:41;34.00;;;21.77;;
2644;SDS011;15377;48.540;9.268;2023-05-23T06:03:07;37.60;;;22.53;;
2644;SDS011;15377;48.540;9.268;2023-05-23T06:05:33;41.17;;;23.70;;
2644;SDS011;15377;48.540;9.268;2023-05-23T06:07:58;38.77;;;22.63;;
2644;SDS011;15377;48.540;9.268;2023-05-23T06:10:24;39.53;;;23.00;;
2644;SDS011;15377;48.540;9.268;2023-05-23T06:12:49;43.10;;;25.53;;
2644;SDS011;15377;48.540;9.268;2023-05-23T06:15:15;39.37;;;23.73;;
2644;SDS011;15377;48.540;9.268;2023-05-23T06:17:40;39.60;;;24.70;;
2644;SDS011;15377;48.540;9.268;2023-05-23T06:20:06;40.40;;;26.23;;
2644;SDS011;15377;48.540;9.268;2023-05-23T06:22:32;43.80;;;27.10;;
2644;SDS011;15377;48.540;9.268;2023-05-23T06:24:57;38.10;;;23.47;;
2644;SDS011;15377;48.540;9.268;2023-05-23T06:27:23;37.77;;;24.70;;
2644;SDS011;15377;48.540;9.268;2023-05-23T06:29:48;41.00;;;24.37;;
2644;SDS011;15377;48.540;9.268;2023-05-23T06:32:14;42.17;;;26.10;;
2644;SDS011;15377;48.540;9.268;2023-05-23T06:34:39;40.00;;;25.77;;
2644;SDS011;15377;48.540;9.268;2023-05-23T06:37:05;40.80;;;24.63;;
2644;SDS011;15377;48.540;9.268;2023-05-23T06:39:30;40.57;;;23.77;;
2644;SDS011;15377;48.540;9.268;2023-05-23T06:42:05;39.70;;;24.60;;
2644;SDS011;15377;48.540;9.268;2023-05-23T06:44:30;40.33;;;25.47;;
2644;SDS011;15377;48.540;9.268;2023-05-23T06:46:56;40.03;;;25.10;;
2644;SDS011;15377;48.540;9.268;2023-05-23T06:49:23;38.60;;;24.80;;
2644;SDS011;15377;48.540;9.268;2023-05-23T06:51:48;38.43;;;23.97;;
2644;SDS011;15377;48.540;9.268;2023-05-23T06:54:14;36.30;;;23.17;;
2644;SDS011;15377;48.540;9.268;2023-05-23T06:56:39;42.50;;;25.33;;
2644;SDS011;15377;48.540;9.268;2023-05-23T06:59:05;39.83;;;24.40;;
2644;SDS011;15377;48.540;9.268;2023-05-23T07:01:30;37.33;;;25.23;;
2644;SDS011;15377;48.540;9.268;2023-05-23T07:03:56;41.20;;;25.67;;
2644;SDS011;15377;48.540;9.268;2023-05-23T07:06:21;96.30;;;64.10;;
2644;SDS011;15377;48.540;9.268;2023-05-23T07:08:46;69.40;;;46.30;;
2644;SDS011;15377;48.540;9.268;2023-05-23T07:11:12;44.47;;;29.10;;
2644;SDS011;15377;48.540;9.268;2023-05-23T07:13:37;38.13;;;24.50;;
2644;SDS011;15377;48.540;9.268;2023-05-23T07:16:02;37.93;;;25.17;;
2644;SDS011;15377;48.540;9.268;2023-05-23T07:18:28;36.57;;;24.60;;
2644;SDS011;15377;48.540;9.268;2023-05-23T07:20:53;39.60;;;25.50;;
2644;SDS011;15377;48.540;9.268;2023-05-23T07:23:19;37.37;;;24.07;;
2644;SDS011;15377;48.540;9.268;2023-05-23T07:25:44;37.17;;;25.97;;
2644;SDS011;15377;48.540;9.268;2023-05-23T07:28:11;38.53;;;25.80;;
2644;SDS011;15377;48.540;9.268;2023-05-23T07:30:36;38.47;;;25.80;;
2644;SDS011;15377;48.540;9.268;2023-05-23T07:33:02;36.60;;;23.90;;
2644;SDS011;15377;48.540;9.268;2023-05-23T07:35:27;44.90;;;27.23;;
2644;SDS011;15377;48.540;9.268;2023-05-23T07:37:53;40.40;;;23.50;;
2644;SDS011;15377;48.540;9.268;2023-05-23T07:40:19;35.40;;;23.67;;
2644;SDS011;15377;48.540;9.268;2023-05-23T07:42:48;35.57;;;24.17;;
2644;SDS011;15377;48.540;9.268;2023-05-23T07:45:13;35.80;;;24.07;;
2644;SDS011;15377;48.540;9.268;2023-05-23T07:47:39;39.80;;;27.50;;
2644;SDS011;15377;48.540;9.268;2023-05-23T07:50:05;39.77;;;26.00;;
2644;SDS011;15377;48.540;9.268;2023-05-23T07:52:31;32.10;;;24.00;;
2644;SDS011;15377;48.540;9.268;2023-05-23T07:54:57;34.13;;;24.03;;
2644;SDS011;15377;48.540;9.268;2023-05-23T07:57:22;38.00;;;26.50;;
2644;SDS011;15377;48.540;9.268;2023-05-23T07:59:54;36.17;;;25.87;;
2644;SDS011;15377;48.540;9.268;2023-05-23T08:02:31;35.67;;;25.13;;
2644;SDS011;15377;48.540;9.268;2023-05-23T08:04:59;35.93;;;24.50;;
2644;SDS011;15377;48.540;9.268;2023-05-23T08:07:24;34.63;;;25.20;;
2644;SDS011;15377;48.540;9.268;2023-05-23T08:09:50;34.47;;;23.10;;
2644;SDS011;15377;48.540;9.268;2023-05-23T08:12:41;31.07;;;22.00;;
2644;SDS011;15377;48.540;9.268;2023-05-23T08:15:09;34.90;;;23.43;;
2644;SDS011;15377;48.540;9.268;2023-05-23T08:17:35;34.50;;;22.83;;
2644;SDS011;15377;48.540;9.268;2023-05-23T08:20:01;40.77;;;28.73;;
2644;SDS011;15377;48.540;9.268;2023-05-23T08:22:28;49.73;;;34.47;;
2644;SDS011;15377;48.540;9.268;2023-05-23T08:24:53;35.13;;;23.33;;
2644;SDS011;15377;48.540;9.268;2023-05-23T08:27:19;37.30;;;22.73;;
2644;SDS011;15377;48.540;9.268;2023-05-23T08:29:47;28.87;;;20.93;;
2644;SDS011;15377;48.540;9.268;2023-05-23T08:32:13;35.23;;;22.23;;
2644;SDS011;15377;48.540;9.268;2023-05-23T08:34:39;31.23;;;21.10;;
2644;SDS011;15377;48.540;9.268;2023-05-23T08:37:04;33.13;;;23.30;;
2644;SDS011;15377;48.540;9.268;2023-05-23T08:39:30;34.07;;;23.83;;
2644;SDS011;15377;48.540;9.268;2023-05-23T08:41:55;35.97;;;21.67;;
2644;SDS011;15377;48.540;9.268;2023-05-23T08:44:20;29.30;;;20.03;;
2644;SDS011;15377;48.540;9.268;2023-05-23T08:46:46;32.93;;;22.10;;
2644;SDS011;15377;48.540;9.268;2023-05-23T08:49:16;30.50;;;21.63;;
2644;SDS011;15377;48.540;9.268;2023-05-23T08:51:42;32.77;;;21.77;;
2644;SDS011;15377;48.540;9.268;2023-05-23T08:54:08;45.07;;;29.73;;
2644;SDS011;15377;48.540;9.268;2023-05-23T08:56:37;31.67;;;22.43;;
2644;SDS011;15377;48.540;9.268;2023-05-23T08:59:07;34.87;;;22.43;;
2644;SDS011;15377;48.540;9.268;2023-05-23T09:01:34;32.13;;;21.80;;
2644;SDS011;15377;48.540;9.268;2023-05-23T09:04:00;31.67;;;22.13;;
2644;SDS011;15377;48.540;9.268;2023-05-23T09:06:28;31.00;;;23.30;;
2644;SDS011;15377;48.540;9.268;2023-05-23T09:08:54;32.17;;;22.40;;
2644;SDS011;15377;48.540;9.268;2023-05-23T09:11:20;32.00;;;23.07;;
2644;SDS011;15377;48.540;9.268;2023-05-23T09:13:46;33.13;;;22.20;;
2644;SDS011;15377;48.540;9.268;2023-05-23T09:16:12;34.00;;;24.13;;
2644;SDS011;15377;48.540;9.268;2023-05-23T09:18:43;28.60;;;21.63;;
2644;SDS011;15377;48.540;9.268;2023-05-23T09:21:09;32.53;;;22.10;;
2644;SDS011;15377;48.540;9.268;2023-05-23T09:23:36;32.10;;;20.83;;
2644;SDS011;15377;48.540;9.268;2023-05-23T09:26:04;32.23;;;21.70;;
2644;SDS011;15377;48.540;9.268;2023-05-23T09:28:33;30.40;;;22.10;;
2644;SDS011;15377;48.540;9.268;2023-05-23T09:31:00;30.20;;;21.97;;
2644;SDS011;15377;48.540;9.268;2023-05-23T09:33:42;32.00;;;22.23;;
2644;SDS011;15377;48.540;9.268;2023-05-23T09:36:15;32.03;;;20.23;;
2644;SDS011;15377;48.540;9.268;2023-05-23T09:38:42;30.77;;;19.80;;
2644;SDS011;15377;48.540;9.268;2023-05-23T09:41:09;32.33;;;21.20;;
2644;SDS011;15377;48.540;9.268;2023-05-23T09:43:38;29.07;;;20.27;;
2644;SDS011;15377;48.540;9.268;2023-05-23T09:46:10;28.20;;;19.63;;
2644;SDS011;15377;48.540;9.268;2023-05-23T09:48:39;28.40;;;20.27;;
2644;SDS011;15377;48.540;9.268;2023-05-23T09:51:10;27.43;;;18.50;;
2644;SDS011;15377;48.540;9.268;2023-05-23T09:53:39;25.70;;;17.47;;
2644;SDS011;15377;48.540;9.268;2023-05-23T09:56:07;23.60;;;17.27;;
2644;SDS011;15377;48.540;9.268;2023-05-23T09:58:39;28.60;;;18.33;;
2644;SDS011;15377;48.540;9.268;2023-05-23T10:01:08;24.47;;;17.57;;
2644;SDS011;15377;48.540;9.268;2023-05-23T10:03:54;34.07;;;22.30;;
2644;SDS011;15377;48.540;9.268;2023-05-23T10:06:41;44.20;;;30.70;;
2644;SDS011;15377;48.540;9.268;2023-05-23T10:09:16;30.50;;;20.57;;
2644;SDS011;15377;48.540;9.268;2023-05-23T10:15:03;28.07;;;20.80;;
2644;SDS011;15377;48.540;9.268;2023-05-23T10:18:33;22.50;;;15.97;;
2644;SDS011;15377;48.540;9.268;2023-05-23T10:20:31;26.27;;;17.27;;
2644;SDS011;15377;48.540;9.268;2023-05-23T10:22:58;23.70;;;17.83;;
2644;SDS011;15377;48.540;9.268;2023-05-23T10:25:25;25.57;;;16.77;;
2644;SDS011;15377;48.540;9.268;2023-05-23T10:27:53;25.60;;;17.47;;
2644;SDS011;15377;48.540;9.268;2023-05-23T10:30:23;22.73;;;15.00;;
2644;SDS011;15377;48.540;9.268;2023-05-23T10:32:49;25.50;;;17.33;;
2644;SDS011;15377;48.540;9.268;2023-05-23T10:35:24;24.97;;;16.10;;
2644;SDS011;15377;48.540;9.268;2023-05-23T10:40:57;20.40;;;14.13;;
2644;SDS011;15377;48.540;9.268;2023-05-23T10:44:14;25.03;;;16.43;;
2644;SDS011;15377;48.540;9.268;2023-05-23T10:46:42;19.50;;;14.97;;
2644;SDS011;15377;48.540;9.268;2023-05-23T10:49:36;22.80;;;15.90;;
2644;SDS011;15377;48.540;9.268;2023-05-23T10:52:17;23.20;;;16.20;;
2644;SDS011;15377;48.540;9.268;2023-05-23T10:54:50;23.17;;;14.50;;
2644;SDS011;15377;48.540;9.268;2023-05-23T10:57:20;43.13;;;29.37;;
2644;SDS011;15377;48.540;9.268;2023-05-23T10:59:50;40.00;;;26.90;;
2644;SDS011;15377;48.540;9.268;2023-05-23T11:02:18;20.43;;;14.90;;
2644;SDS011;15377;48.540;9.268;2023-05-23T11:05:09;24.30;;;16.97;;
2644;SDS011;15377;48.540;9.268;2023-05-23T11:10:37;20.17;;;14.80;;
2644;SDS011;15377;48.540;9.268;2023-05-23T11:13:16;22.37;;;15.30;;
2644;SDS011;15377;48.540;9.268;2023-05-23T11:15:41;30.07;;;21.17;;
2644;SDS011;15377;48.540;9.268;2023-05-23T11:18:09;22.07;;;16.43;;
2644;SDS011;15377;48.540;9.268;2023-05-23T11:20:43;23.93;;;17.17;;
2644;SDS011;15377;48.540;9.268;2023-05-23T11:23:11;18.80;;;12.87;;
2644;SDS011;15377;48.540;9.268;2023-05-23T11:25:43;20.70;;;13.20;;
2644;SDS011;15377;48.540;9.268;2023-05-23T11:28:11;25.00;;;16.90;;
2644;SDS011;15377;48.540;9.268;2023-05-23T11:30:37;20.10;;;13.13;;
2644;SDS011;15377;48.540;9.268;2023-05-23T11:33:07;20.07;;;14.03;;
2644;SDS011;15377;48.540;9.268;2023-05-23T11:35:36;21.77;;;13.00;;
2644;SDS011;15377;48.540;9.268;2023-05-23T11:38:04;19.70;;;14.70;;
2644;SDS011;15377;48.540;9.268;2023-05-23T11:40:31;22.30;;;15.30;;
2644;SDS011;15377;48.540;9.268;2023-05-23T11:43:04;18.47;;;13.57;;
2644;SDS011;15377;48.540;9.268;2023-05-23T11:45:34;20.83;;;14.77;;
2644;SDS011;15377;48.540;9.268;2023-05-23T11:48:06;22.33;;;15.03;;
2644;SDS011;15377;48.540;9.268;2023-05-23T11:50:32;17.90;;;13.57;;
2644;SDS011;15377;48.540;9.268;2023-05-23T11:52:58;20.77;;;14.97;;
2644;SDS011;15377;48.540;9.268;2023-05-23T11:55:24;20.07;;;14.60;;
2644;SDS011;15377;48.540;9.268;2023-05-23T11:57:49;20.73;;;16.30;;
2644;SDS011;15377;48.540;9.268;2023-05-23T12:00:15;19.47;;;14.20;;
2644;SDS011;15377;48.540;9.268;2023-05-23T12:02:42;20.83;;;13.90;;
2644;SDS011;15377;48.540;9.268;2023-05-23T12:05:09;21.80;;;14.37;;
2644;SDS011;15377;48.540;9.268;2023-05-23T12:07:40;18.47;;;13.07;;
2644;SDS011;15377;48.540;9.268;2023-05-23T12:10:10;23.33;;;14.97;;
2644;SDS011;15377;48.540;9.268;2023-05-23T12:12:39;13.70;;;9.10;;
2644;SDS011;15377;48.540;9.268;2023-05-23T12:15:07;11.50;;;8.03;;
2644;SDS011;15377;48.540;9.268;2023-05-23T12:17:33;13.60;;;9.20;;
2644;SDS011;15377;48.540;9.268;2023-05-23T12:20:00;47.13;;;29.20;;
2644;SDS011;15377;48.540;9.268;2023-05-23T12:22:26;20.20;;;13.97;;
2644;SDS011;15377;48.540;9.268;2023-05-23T12:24:52;17.10;;;11.17;;
2644;SDS011;15377;48.540;9.268;2023-05-23T12:27:25;15.73;;;10.40;;
2644;SDS011;15377;48.540;9.268;2023-05-23T12:29:51;12.77;;;7.40;;
2644;SDS011;15377;48.540;9.268;2023-05-23T12:32:28;14.53;;;9.60;;
2644;SDS011;15377;48.540;9.268;2023-05-23T12:34:53;12.30;;;8.67;;
2644;SDS011;15377;48.540;9.268;2023-05-23T12:37:18;10.60;;;7.60;;
2644;SDS011;15377;48.540;9.268;2023-05-23T12:39:43;12.77;;;8.30;;
2644;SDS011;15377;48.540;9.268;2023-05-23T12:42:09;12.33;;;8.40;;
2644;SDS011;15377;48.540;9.268;2023-05-23T12:44:35;11.40;;;7.53;;
2644;SDS011;15377;48.540;9.268;2023-05-23T12:47:01;10.83;;;8.40;;
2644;SDS011;15377;48.540;9.268;2023-05-23T12:49:28;11.50;;;7.77;;
2644;SDS011;15377;48.540;9.268;2023-05-23T12:51:53;11.53;;;8.10;;
2644;SDS011;15377;48.540;9.268;2023-05-23T12:54:18;13.20;;;8.10;;
2644;SDS011;15377;48.540;9.268;2023-05-23T12:56:44;13.23;;;9.13;;
2644;SDS011;15377;48.540;9.268;2023-05-23T12:59:09;12.40;;;9.10;;
2644;SDS011;15377;48.540;9.268;2023-05-23T13:01:34;11.73;;;7.20;;
2644;SDS011;15377;48.540;9.268;2023-05-23T13:04:00;12.40;;;8.93;;
2644;SDS011;15377;48.540;9.268;2023-05-23T13:06:26;11.80;;;8.30;;
2644;SDS011;15377;48.540;9.268;2023-05-23T13:08:52;14.80;;;10.17;;
2644;SDS011;15377;48.540;9.268;2023-05-23T13:11:19;14.03;;;9.37;;
2644;SDS011;15377;48.540;9.268;2023-05-23T13:13:46;12.43;;;8.17;;
2644;SDS011;15377;48.540;9.268;2023-05-23T13:16:12;12.30;;;8.40;;
2644;SDS011;15377;48.540;9.268;2023-05-23T13:18:43;13.27;;;8.67;;
2644;SDS011;15377;48.540;9.268;2023-05-23T13:21:09;29.60;;;22.20;;
2644;SDS011;15377;48.540;9.268;2023-05-23T13:23:34;20.50;;;12.97;;
2644;SDS011;15377;48.540;9.268;2023-05-23T13:26:01;12.60;;;8.57;;
2644;SDS011;15377;48.540;9.268;2023-05-23T13:28:27;10.53;;;7.30;;
2644;SDS011;15377;48.540;9.268;2023-05-23T13:30:53;10.13;;;6.83;;
2644;SDS011;15377;48.540;9.268;2023-05-23T13:33:18;10.80;;;7.10;;
2644;SDS011;15377;48.540;9.268;2023-05-23T13:35:45;10.83;;;7.30;;
2644;SDS011;15377;48.540;9.268;2023-05-23T13:38:13;9.30;;;6.37;;
2644;SDS011;15377;48.540;9.268;2023-05-23T13:40:38;9.83;;;6.57;;
2644;SDS011;15377;48.540;9.268;2023-05-23T13:43:03;11.00;;;7.10;;
2644;SDS011;15377;48.540;9.268;2023-05-23T13:45:29;9.93;;;6.53;;
2644;SDS011;15377;48.540;9.268;2023-05-23T13:47:55;9.33;;;6.00;;
2644;SDS011;15377;48.540;9.268;2023-05-23T13:50:20;9.03;;;6.00;;
2644;SDS011;15377;48.540;9.268;2023-05-23T13:52:45;10.83;;;6.53;;
2644;SDS011;15377;48.540;9.268;2023-05-23T13:55:11;9.53;;;6.20;;
2644;SDS011;15377;48.540;9.268;2023-05-23T13:57:36;11.97;;;6.03;;
2644;SDS011;15377;48.540;9.268;2023-05-23T14:00:01;8.27;;;5.30;;
2644;SDS011;15377;48.540;9.268;2023-05-23T14:02:27;8.23;;;5.23;;
2644;SDS011;15377;48.540;9.268;2023-05-23T14:04:55;8.33;;;5.77;;
2644;SDS011;15377;48.540;9.268;2023-05-23T14:07:21;8.27;;;5.43;;
2644;SDS011;15377;48.540;9.268;2023-05-23T14:09:46;9.77;;;5.97;;
2644;SDS011;15377;48.540;9.268;2023-05-23T14:12:12;9.23;;;5.70;;
2644;SDS011;15377;48.540;9.268;2023-05-23T14:14:37;8.37;;;5.47;;
2644;SDS011;15377;48.540;9.268;2023-05-23T14:17:03;7.87;;;5.13;;
2644;SDS011;15377;48.540;9.268;2023-05-23T14:19:29;8.77;;;5.20;;
2644;SDS011;15377;48.540;9.268;2023-05-23T14:21:54;8.10;;;5.03;;
2644;SDS011;15377;48.540;9.268;2023-05-23T14:24:20;15.00;;;8.83;;
2644;SDS011;15377;48.540;9.268;2023-05-23T14:26:46;10.40;;;6.50;;
2644;SDS011;15377;48.540;9.268;2023-05-23T14:29:11;8.60;;;5.37;;
2644;SDS011;15377;48.540;9.268;2023-05-23T14:31:37;7.77;;;4.40;;
2644;SDS011;15377;48.540;9.268;2023-05-23T14:34:02;7.63;;;5.30;;
2644;SDS011;15377;48.540;9.268;2023-05-23T14:36:27;8.90;;;5.20;;
2644;SDS011;15377;48.540;9.268;2023-05-23T14:38:53;9.70;;;6.30;;
2644;SDS011;15377;48.540;9.268;2023-05-23T14:41:18;7.73;;;4.87;;
2644;SDS011;15377;48.540;9.268;2023-05-23T14:43:43;9.17;;;5.33;;
2644;SDS011;15377;48.540;9.268;2023-05-23T14:46:09;8.17;;;4.43;;
2644;SDS011;15377;48.540;9.268;2023-05-23T14:48:34;8.97;;;5.10;;
2644;SDS011;15377;48.540;9.268;2023-05-23T14:51:00;7.60;;;4.80;;
2644;SDS011;15377;48.540;9.268;2023-05-23T14:53:26;9.67;;;4.73;;
2644;SDS011;15377;48.540;9.268;2023-05-23T14:55:52;7.57;;;4.30;;